sensor_id;sensor_type;location;lat;lon;timestamp;P1;durP1;ratioP1;P2;durP2;ratioP2
68247;SDS011;55064;49.636;12.164;2023-04-03T00:06:28;6.87;;;2.20;;
68247;SDS011;55064;49.636;12.164;2023-04-03T00:23:56;7.68;;;2.25;;
68247;SDS011;55064;49.636;12.164;2023-04-03T00:26:29;7.18;;;2.47;;
68247;SDS011;55064;49.636;12.164;2023-04-03T00:48:04;6.65;;;2.20;;
68247;SDS011;55064;49.636;12.164;2023-04-03T00:50:34;6.23;;;2.00;;
68247;SDS011;55064;49.636;12.164;2023-04-03T01:02:30;4.95;;;1.70;;
68247;SDS011;55064;49.636;12.164;2023-04-03T01:14:57;5.80;;;2.13;;
68247;SDS011;55064;49.636;12.164;2023-04-03T01:24:25;6.93;;;1.90;;
68247;SDS011;55064;49.636;12.164;2023-04-03T01:30:19;8.70;;;2.33;;
68247;SDS011;55064;49.636;12.164;2023-04-03T01:33:00;5.55;;;2.03;;
68247;SDS011;55064;49.636;12.164;2023-04-03T01:38:53;6.35;;;2.28;;
68247;SDS011;55064;49.636;12.164;2023-04-03T01:47:48;5.95;;;1.90;;
68247;SDS011;55064;49.636;12.164;2023-04-03T01:50:16;6.90;;;2.20;;
68247;SDS011;55064;49.636;12.164;2023-04-03T02:05:18;6.97;;;2.07;;
68247;SDS011;55064;49.636;12.164;2023-04-03T02:11:05;6.63;;;2.10;;
68247;SDS011;55064;49.636;12.164;2023-04-03T02:16:53;7.07;;;1.95;;
68247;SDS011;55064;49.636;12.164;2023-04-03T02:25:45;6.57;;;2.10;;
68247;SDS011;55064;49.636;12.164;2023-04-03T02:28:32;6.82;;;1.90;;
68247;SDS011;55064;49.636;12.164;2023-04-03T02:30:59;8.27;;;3.13;;
68247;SDS011;55064;49.636;12.164;2023-04-03T02:33:43;9.35;;;4.15;;
68247;SDS011;55064;49.636;12.164;2023-04-03T02:36:08;6.75;;;2.20;;
68247;SDS011;55064;49.636;12.164;2023-04-03T02:48:39;10.02;;;4.13;;
68247;SDS011;55064;49.636;12.164;2023-04-03T02:54:28;9.77;;;3.45;;
68247;SDS011;55064;49.636;12.164;2023-04-03T03:00:15;10.40;;;4.13;;
68247;SDS011;55064;49.636;12.164;2023-04-03T03:09:22;22.00;;;8.07;;
68247;SDS011;55064;49.636;12.164;2023-04-03T03:18:34;7.70;;;3.30;;
68247;SDS011;55064;49.636;12.164;2023-04-03T03:34:11;7.93;;;2.75;;
68247;SDS011;55064;49.636;12.164;2023-04-03T03:36:41;8.70;;;3.03;;
68247;SDS011;55064;49.636;12.164;2023-04-03T03:39:10;7.28;;;2.40;;
68247;SDS011;55064;49.636;12.164;2023-04-03T03:44:59;7.60;;;2.55;;
68247;SDS011;55064;49.636;12.164;2023-04-03T03:47:25;5.73;;;2.10;;
68247;SDS011;55064;49.636;12.164;2023-04-03T04:15:08;6.05;;;2.53;;
68247;SDS011;55064;49.636;12.164;2023-04-03T04:17:45;7.15;;;2.40;;
68247;SDS011;55064;49.636;12.164;2023-04-03T04:23:33;9.63;;;2.83;;
68247;SDS011;55064;49.636;12.164;2023-04-03T04:25:59;6.72;;;2.63;;
68247;SDS011;55064;49.636;12.164;2023-04-03T04:34:20;7.47;;;2.90;;
68247;SDS011;55064;49.636;12.164;2023-04-03T04:36:47;8.48;;;2.90;;
68247;SDS011;55064;49.636;12.164;2023-04-03T04:39:15;9.77;;;3.10;;
68247;SDS011;55064;49.636;12.164;2023-04-03T05:00:38;6.93;;;2.63;;
68247;SDS011;55064;49.636;12.164;2023-04-03T05:06:25;7.25;;;2.47;;
68247;SDS011;55064;49.636;12.164;2023-04-03T05:15:40;8.70;;;2.50;;
68247;SDS011;55064;49.636;12.164;2023-04-03T05:24:21;6.28;;;2.38;;
68247;SDS011;55064;49.636;12.164;2023-04-03T05:26:53;6.37;;;2.50;;
68247;SDS011;55064;49.636;12.164;2023-04-03T05:29:19;7.05;;;2.47;;
68247;SDS011;55064;49.636;12.164;2023-04-03T05:31:44;8.03;;;2.80;;
68247;SDS011;55064;49.636;12.164;2023-04-03T05:34:10;8.38;;;2.60;;
68247;SDS011;55064;49.636;12.164;2023-04-03T05:36:38;7.47;;;2.60;;
68247;SDS011;55064;49.636;12.164;2023-04-03T05:39:06;7.40;;;2.90;;
68247;SDS011;55064;49.636;12.164;2023-04-03T05:41:32;7.18;;;2.80;;
68247;SDS011;55064;49.636;12.164;2023-04-03T05:44:00;7.55;;;2.90;;
68247;SDS011;55064;49.636;12.164;2023-04-03T05:46:27;7.60;;;2.72;;
68247;SDS011;55064;49.636;12.164;2023-04-03T05:48:55;9.03;;;3.20;;
68247;SDS011;55064;49.636;12.164;2023-04-03T05:51:25;7.40;;;3.00;;
68247;SDS011;55064;49.636;12.164;2023-04-03T05:54:03;9.37;;;3.03;;
68247;SDS011;55064;49.636;12.164;2023-04-03T05:56:34;7.00;;;2.75;;
68247;SDS011;55064;49.636;12.164;2023-04-03T05:58:59;6.97;;;2.87;;
68247;SDS011;55064;49.636;12.164;2023-04-03T06:01:25;9.50;;;2.95;;
68247;SDS011;55064;49.636;12.164;2023-04-03T06:03:51;8.00;;;2.70;;
68247;SDS011;55064;49.636;12.164;2023-04-03T06:06:20;7.63;;;3.25;;
68247;SDS011;55064;49.636;12.164;2023-04-03T06:08:47;8.37;;;3.23;;
68247;SDS011;55064;49.636;12.164;2023-04-03T06:11:12;8.88;;;2.85;;
68247;SDS011;55064;49.636;12.164;2023-04-03T06:13:38;7.00;;;2.90;;
68247;SDS011;55064;49.636;12.164;2023-04-03T06:16:03;7.40;;;3.03;;
68247;SDS011;55064;49.636;12.164;2023-04-03T06:18:29;7.00;;;3.15;;
68247;SDS011;55064;49.636;12.164;2023-04-03T06:20:55;7.00;;;2.77;;
68247;SDS011;55064;49.636;12.164;2023-04-03T06:23:20;7.20;;;3.40;;
68247;SDS011;55064;49.636;12.164;2023-04-03T06:25:45;6.72;;;2.70;;
68247;SDS011;55064;49.636;12.164;2023-04-03T06:28:13;8.90;;;3.23;;
68247;SDS011;55064;49.636;12.164;2023-04-03T06:30:39;7.73;;;3.00;;
68247;SDS011;55064;49.636;12.164;2023-04-03T06:33:06;8.95;;;2.85;;
68247;SDS011;55064;49.636;12.164;2023-04-03T06:35:32;8.70;;;2.60;;
68247;SDS011;55064;49.636;12.164;2023-04-03T06:38:01;9.10;;;2.92;;
68247;SDS011;55064;49.636;12.164;2023-04-03T06:40:26;8.05;;;2.88;;
68247;SDS011;55064;49.636;12.164;2023-04-03T06:42:52;6.37;;;2.67;;
68247;SDS011;55064;49.636;12.164;2023-04-03T06:45:17;7.00;;;2.50;;
68247;SDS011;55064;49.636;12.164;2023-04-03T06:47:46;6.80;;;2.93;;
68247;SDS011;55064;49.636;12.164;2023-04-03T06:50:12;6.63;;;2.72;;
68247;SDS011;55064;49.636;12.164;2023-04-03T06:52:39;11.10;;;3.10;;
68247;SDS011;55064;49.636;12.164;2023-04-03T06:55:04;7.68;;;2.85;;
68247;SDS011;55064;49.636;12.164;2023-04-03T06:57:34;7.80;;;2.70;;
68247;SDS011;55064;49.636;12.164;2023-04-03T06:59:59;7.37;;;2.50;;
68247;SDS011;55064;49.636;12.164;2023-04-03T07:02:25;8.03;;;2.50;;
68247;SDS011;55064;49.636;12.164;2023-04-03T07:04:51;9.18;;;2.65;;
68247;SDS011;55064;49.636;12.164;2023-04-03T07:07:16;8.10;;;3.00;;
68247;SDS011;55064;49.636;12.164;2023-04-03T07:09:42;6.88;;;2.47;;
68247;SDS011;55064;49.636;12.164;2023-04-03T07:12:08;7.13;;;2.70;;
68247;SDS011;55064;49.636;12.164;2023-04-03T07:14:33;6.90;;;2.57;;
68247;SDS011;55064;49.636;12.164;2023-04-03T07:16:59;7.83;;;2.50;;
68247;SDS011;55064;49.636;12.164;2023-04-03T07:19:27;6.03;;;2.50;;
68247;SDS011;55064;49.636;12.164;2023-04-03T07:21:56;8.27;;;2.88;;
68247;SDS011;55064;49.636;12.164;2023-04-03T07:24:21;10.20;;;2.90;;
68247;SDS011;55064;49.636;12.164;2023-04-03T07:26:51;7.45;;;2.67;;
68247;SDS011;55064;49.636;12.164;2023-04-03T07:29:17;6.85;;;2.58;;
68247;SDS011;55064;49.636;12.164;2023-04-03T07:31:43;9.03;;;2.80;;
68247;SDS011;55064;49.636;12.164;2023-04-03T07:34:09;8.77;;;2.50;;
68247;SDS011;55064;49.636;12.164;2023-04-03T07:36:37;6.87;;;2.10;;
68247;SDS011;55064;49.636;12.164;2023-04-03T07:39:03;8.95;;;2.53;;
68247;SDS011;55064;49.636;12.164;2023-04-03T07:41:29;5.70;;;1.95;;
68247;SDS011;55064;49.636;12.164;2023-04-03T07:43:55;5.28;;;1.88;;
68247;SDS011;55064;49.636;12.164;2023-04-03T07:46:22;6.82;;;2.45;;
68247;SDS011;55064;49.636;12.164;2023-04-03T07:48:49;8.73;;;2.20;;
68247;SDS011;55064;49.636;12.164;2023-04-03T07:51:16;7.95;;;2.10;;
68247;SDS011;55064;49.636;12.164;2023-04-03T07:53:42;7.55;;;1.95;;
68247;SDS011;55064;49.636;12.164;2023-04-03T07:56:09;7.57;;;2.60;;
68247;SDS011;55064;49.636;12.164;2023-04-03T07:58:35;6.03;;;1.83;;
68247;SDS011;55064;49.636;12.164;2023-04-03T08:01:01;7.57;;;1.90;;
68247;SDS011;55064;49.636;12.164;2023-04-03T08:03:26;7.07;;;2.25;;
68247;SDS011;55064;49.636;12.164;2023-04-03T08:05:51;6.07;;;2.03;;
68247;SDS011;55064;49.636;12.164;2023-04-03T08:08:20;7.50;;;2.35;;
68247;SDS011;55064;49.636;12.164;2023-04-03T08:10:51;6.23;;;2.13;;
68247;SDS011;55064;49.636;12.164;2023-04-03T08:13:17;7.10;;;1.98;;
68247;SDS011;55064;49.636;12.164;2023-04-03T08:15:45;6.80;;;2.33;;
68247;SDS011;55064;49.636;12.164;2023-04-03T08:18:13;5.60;;;1.77;;
68247;SDS011;55064;49.636;12.164;2023-04-03T08:20:39;6.07;;;1.92;;
68247;SDS011;55064;49.636;12.164;2023-04-03T08:23:05;8.13;;;2.00;;
68247;SDS011;55064;49.636;12.164;2023-04-03T08:25:33;5.70;;;1.95;;
68247;SDS011;55064;49.636;12.164;2023-04-03T08:28:02;5.78;;;1.75;;
68247;SDS011;55064;49.636;12.164;2023-04-03T08:30:28;7.83;;;2.00;;
68247;SDS011;55064;49.636;12.164;2023-04-03T08:32:54;6.85;;;1.75;;
68247;SDS011;55064;49.636;12.164;2023-04-03T08:35:21;4.70;;;1.70;;
68247;SDS011;55064;49.636;12.164;2023-04-03T08:37:47;4.87;;;1.70;;
68247;SDS011;55064;49.636;12.164;2023-04-03T08:40:15;5.50;;;1.67;;
68247;SDS011;55064;49.636;12.164;2023-04-03T08:45:25;5.53;;;1.60;;
68247;SDS011;55064;49.636;12.164;2023-04-03T08:48:04;6.65;;;1.67;;
68247;SDS011;55064;49.636;12.164;2023-04-03T08:50:49;5.17;;;1.40;;
68247;SDS011;55064;49.636;12.164;2023-04-03T08:53:19;4.72;;;1.40;;
68247;SDS011;55064;49.636;12.164;2023-04-03T08:55:50;5.43;;;1.25;;
68247;SDS011;55064;49.636;12.164;2023-04-03T09:03:31;4.57;;;1.30;;
68247;SDS011;55064;49.636;12.164;2023-04-03T09:06:21;5.72;;;1.50;;
68247;SDS011;55064;49.636;12.164;2023-04-03T09:14:36;6.28;;;1.35;;
68247;SDS011;55064;49.636;12.164;2023-04-03T09:17:26;4.87;;;0.93;;
68247;SDS011;55064;49.636;12.164;2023-04-03T09:22:41;3.30;;;0.77;;
68247;SDS011;55064;49.636;12.164;2023-04-03T09:25:20;6.50;;;0.90;;
68247;SDS011;55064;49.636;12.164;2023-04-03T09:27:47;4.90;;;0.80;;
68247;SDS011;55064;49.636;12.164;2023-04-03T09:30:17;3.60;;;0.90;;
68247;SDS011;55064;49.636;12.164;2023-04-03T09:32:45;3.38;;;0.75;;
68247;SDS011;55064;49.636;12.164;2023-04-03T09:38:01;4.65;;;0.60;;
68247;SDS011;55064;49.636;12.164;2023-04-03T09:40:37;6.35;;;1.42;;
68247;SDS011;55064;49.636;12.164;2023-04-03T09:45:41;2.63;;;0.70;;
68247;SDS011;55064;49.636;12.164;2023-04-03T09:48:12;3.83;;;1.00;;
68247;SDS011;55064;49.636;12.164;2023-04-03T09:53:51;3.55;;;0.80;;
68247;SDS011;55064;49.636;12.164;2023-04-03T09:58:42;4.88;;;0.80;;
68247;SDS011;55064;49.636;12.164;2023-04-03T10:01:29;2.67;;;0.75;;
68247;SDS011;55064;49.636;12.164;2023-04-03T10:06:41;3.30;;;0.68;;
68247;SDS011;55064;49.636;12.164;2023-04-03T10:09:16;3.17;;;0.80;;
68247;SDS011;55064;49.636;12.164;2023-04-03T10:12:02;3.10;;;0.60;;
68247;SDS011;55064;49.636;12.164;2023-04-03T10:14:33;3.72;;;1.13;;
68247;SDS011;55064;49.636;12.164;2023-04-03T10:19:47;2.35;;;0.70;;
68247;SDS011;55064;49.636;12.164;2023-04-03T10:22:20;2.80;;;0.50;;
68247;SDS011;55064;49.636;12.164;2023-04-03T10:27:38;2.90;;;0.63;;
68247;SDS011;55064;49.636;12.164;2023-04-03T10:30:21;3.40;;;0.73;;
68247;SDS011;55064;49.636;12.164;2023-04-03T10:33:11;2.53;;;0.60;;
68247;SDS011;55064;49.636;12.164;2023-04-03T10:43:36;2.67;;;0.70;;
68247;SDS011;55064;49.636;12.164;2023-04-03T10:48:50;4.30;;;0.68;;
68247;SDS011;55064;49.636;12.164;2023-04-03T10:56:56;4.30;;;1.15;;
68247;SDS011;55064;49.636;12.164;2023-04-03T11:02:04;2.90;;;0.70;;
68247;SDS011;55064;49.636;12.164;2023-04-03T11:04:37;3.50;;;0.80;;
68247;SDS011;55064;49.636;12.164;2023-04-03T11:07:10;2.85;;;0.63;;
68247;SDS011;55064;49.636;12.164;2023-04-03T11:09:43;3.30;;;0.80;;
68247;SDS011;55064;49.636;12.164;2023-04-03T11:14:53;3.33;;;0.60;;
68247;SDS011;55064;49.636;12.164;2023-04-03T11:27:55;2.80;;;0.68;;
68247;SDS011;55064;49.636;12.164;2023-04-03T11:30:44;5.32;;;0.95;;
68247;SDS011;55064;49.636;12.164;2023-04-03T11:33:31;3.33;;;0.90;;
68247;SDS011;55064;49.636;12.164;2023-04-03T11:38:52;3.40;;;0.80;;
68247;SDS011;55064;49.636;12.164;2023-04-03T11:41:28;5.13;;;0.85;;
68247;SDS011;55064;49.636;12.164;2023-04-03T11:43:56;4.85;;;0.85;;
68247;SDS011;55064;49.636;12.164;2023-04-03T11:46:48;3.05;;;0.70;;
68247;SDS011;55064;49.636;12.164;2023-04-03T12:05:52;3.83;;;0.77;;
68247;SDS011;55064;49.636;12.164;2023-04-03T12:08:24;3.53;;;0.70;;
68247;SDS011;55064;49.636;12.164;2023-04-03T12:13:37;3.08;;;0.75;;
68247;SDS011;55064;49.636;12.164;2023-04-03T12:16:22;4.43;;;1.00;;
68247;SDS011;55064;49.636;12.164;2023-04-03T12:42:55;2.97;;;0.88;;
68247;SDS011;55064;49.636;12.164;2023-04-03T12:48:26;4.03;;;0.90;;
68247;SDS011;55064;49.636;12.164;2023-04-03T12:50:54;3.63;;;0.90;;
68247;SDS011;55064;49.636;12.164;2023-04-03T12:53:22;5.93;;;1.15;;
68247;SDS011;55064;49.636;12.164;2023-04-03T12:55:57;3.10;;;0.80;;
68247;SDS011;55064;49.636;12.164;2023-04-03T12:58:42;3.63;;;1.00;;
68247;SDS011;55064;49.636;12.164;2023-04-03T13:01:12;3.10;;;0.63;;
68247;SDS011;55064;49.636;12.164;2023-04-03T13:03:44;5.53;;;0.80;;
68247;SDS011;55064;49.636;12.164;2023-04-03T13:06:21;4.40;;;1.00;;
68247;SDS011;55064;49.636;12.164;2023-04-03T13:08:53;4.32;;;1.33;;
68247;SDS011;55064;49.636;12.164;2023-04-03T13:11:23;3.97;;;0.93;;
68247;SDS011;55064;49.636;12.164;2023-04-03T13:13:58;2.88;;;0.70;;
68247;SDS011;55064;49.636;12.164;2023-04-03T13:16:28;5.57;;;1.00;;
68247;SDS011;55064;49.636;12.164;2023-04-03T13:18:55;5.63;;;1.10;;
68247;SDS011;55064;49.636;12.164;2023-04-03T13:21:31;3.38;;;0.80;;
68247;SDS011;55064;49.636;12.164;2023-04-03T13:23:59;4.73;;;0.93;;
68247;SDS011;55064;49.636;12.164;2023-04-03T13:26:31;3.40;;;0.80;;
68247;SDS011;55064;49.636;12.164;2023-04-03T13:29:40;3.95;;;0.93;;
68247;SDS011;55064;49.636;12.164;2023-04-03T13:31:53;5.20;;;0.93;;
68247;SDS011;55064;49.636;12.164;2023-04-03T13:34:22;4.30;;;0.90;;
68247;SDS011;55064;49.636;12.164;2023-04-03T13:39:26;3.88;;;0.95;;
68247;SDS011;55064;49.636;12.164;2023-04-03T13:42:00;3.22;;;0.90;;
68247;SDS011;55064;49.636;12.164;2023-04-03T13:46:56;4.68;;;0.95;;
68247;SDS011;55064;49.636;12.164;2023-04-03T13:50:30;3.67;;;0.80;;
68247;SDS011;55064;49.636;12.164;2023-04-03T13:52:41;3.58;;;0.85;;
68247;SDS011;55064;49.636;12.164;2023-04-03T13:55:18;3.58;;;0.90;;
68247;SDS011;55064;49.636;12.164;2023-04-03T13:57:52;4.25;;;1.38;;
68247;SDS011;55064;49.636;12.164;2023-04-03T14:00:34;4.50;;;1.00;;
68247;SDS011;55064;49.636;12.164;2023-04-03T14:03:07;3.47;;;0.90;;
68247;SDS011;55064;49.636;12.164;2023-04-03T14:05:38;3.83;;;1.17;;
68247;SDS011;55064;49.636;12.164;2023-04-03T14:08:04;5.00;;;0.90;;
68247;SDS011;55064;49.636;12.164;2023-04-03T14:10:32;4.47;;;0.90;;
68247;SDS011;55064;49.636;12.164;2023-04-03T14:12:57;3.55;;;1.00;;
68247;SDS011;55064;49.636;12.164;2023-04-03T14:15:24;5.30;;;1.50;;
68247;SDS011;55064;49.636;12.164;2023-04-03T14:17:54;3.88;;;1.00;;
68247;SDS011;55064;49.636;12.164;2023-04-03T14:20:21;5.18;;;1.00;;
68247;SDS011;55064;49.636;12.164;2023-04-03T14:22:49;4.43;;;1.17;;
68247;SDS011;55064;49.636;12.164;2023-04-03T14:25:18;7.78;;;2.50;;
68247;SDS011;55064;49.636;12.164;2023-04-03T14:27:45;5.03;;;1.17;;
68247;SDS011;55064;49.636;12.164;2023-04-03T14:30:14;4.65;;;1.13;;
68247;SDS011;55064;49.636;12.164;2023-04-03T14:32:45;4.82;;;1.20;;
68247;SDS011;55064;49.636;12.164;2023-04-03T14:35:14;3.53;;;1.10;;
68247;SDS011;55064;49.636;12.164;2023-04-03T14:37:41;3.67;;;0.90;;
68247;SDS011;55064;49.636;12.164;2023-04-03T14:40:07;4.43;;;1.02;;
68247;SDS011;55064;49.636;12.164;2023-04-03T14:42:35;3.28;;;0.82;;
68247;SDS011;55064;49.636;12.164;2023-04-03T14:45:03;3.78;;;1.00;;
68247;SDS011;55064;49.636;12.164;2023-04-03T14:47:31;4.20;;;1.33;;
68247;SDS011;55064;49.636;12.164;2023-04-03T14:50:00;5.53;;;1.55;;
68247;SDS011;55064;49.636;12.164;2023-04-03T14:52:30;4.57;;;1.17;;
68247;SDS011;55064;49.636;12.164;2023-04-03T14:54:58;3.90;;;0.80;;
68247;SDS011;55064;49.636;12.164;2023-04-03T14:57:27;4.30;;;0.90;;
68247;SDS011;55064;49.636;12.164;2023-04-03T14:59:54;2.97;;;0.80;;
68247;SDS011;55064;49.636;12.164;2023-04-03T15:02:29;6.93;;;1.52;;
68247;SDS011;55064;49.636;12.164;2023-04-03T15:05:07;5.07;;;1.10;;
68247;SDS011;55064;49.636;12.164;2023-04-03T15:07:54;3.25;;;0.90;;
68247;SDS011;55064;49.636;12.164;2023-04-03T15:10:25;6.60;;;1.70;;
68247;SDS011;55064;49.636;12.164;2023-04-03T15:12:52;3.25;;;0.95;;
68247;SDS011;55064;49.636;12.164;2023-04-03T15:15:23;5.55;;;1.20;;
68247;SDS011;55064;49.636;12.164;2023-04-03T15:17:51;4.40;;;1.00;;
68247;SDS011;55064;49.636;12.164;2023-04-03T15:20:20;4.65;;;1.40;;
68247;SDS011;55064;49.636;12.164;2023-04-03T15:31:50;6.43;;;1.20;;
68247;SDS011;55064;49.636;12.164;2023-04-03T15:34:19;4.82;;;1.23;;
68247;SDS011;55064;49.636;12.164;2023-04-03T15:36:46;3.58;;;1.25;;
68247;SDS011;55064;49.636;12.164;2023-04-03T15:39:11;5.20;;;1.20;;
68247;SDS011;55064;49.636;12.164;2023-04-03T15:41:37;5.20;;;1.20;;
68247;SDS011;55064;49.636;12.164;2023-04-03T15:44:02;4.33;;;1.20;;
68247;SDS011;55064;49.636;12.164;2023-04-03T15:46:30;4.10;;;1.15;;
68247;SDS011;55064;49.636;12.164;2023-04-03T15:48:58;5.53;;;1.37;;
68247;SDS011;55064;49.636;12.164;2023-04-03T15:51:24;3.55;;;1.10;;
68247;SDS011;55064;49.636;12.164;2023-04-03T15:53:49;5.93;;;1.45;;
68247;SDS011;55064;49.636;12.164;2023-04-03T15:56:17;5.00;;;1.40;;
68247;SDS011;55064;49.636;12.164;2023-04-03T15:58:42;4.80;;;1.60;;
68247;SDS011;55064;49.636;12.164;2023-04-03T16:04:06;5.53;;;1.40;;
68247;SDS011;55064;49.636;12.164;2023-04-03T16:09:59;4.30;;;1.20;;
68247;SDS011;55064;49.636;12.164;2023-04-03T16:15:49;6.82;;;2.08;;
68247;SDS011;55064;49.636;12.164;2023-04-03T16:25:14;4.43;;;1.27;;
68247;SDS011;55064;49.636;12.164;2023-04-03T16:31:00;4.80;;;1.20;;
68247;SDS011;55064;49.636;12.164;2023-04-03T16:33:27;4.53;;;1.20;;
68247;SDS011;55064;49.636;12.164;2023-04-03T16:35:52;3.93;;;1.00;;
68247;SDS011;55064;49.636;12.164;2023-04-03T16:38:18;4.75;;;1.30;;
68247;SDS011;55064;49.636;12.164;2023-04-03T16:40:44;6.60;;;1.10;;
68247;SDS011;55064;49.636;12.164;2023-04-03T16:43:10;3.75;;;1.20;;
68247;SDS011;55064;49.636;12.164;2023-04-03T16:48:25;5.60;;;1.50;;
68247;SDS011;55064;49.636;12.164;2023-04-03T16:54:14;5.38;;;1.10;;
68247;SDS011;55064;49.636;12.164;2023-04-03T16:56:46;3.90;;;1.13;;
68247;SDS011;55064;49.636;12.164;2023-04-03T17:02:33;5.88;;;1.30;;
68247;SDS011;55064;49.636;12.164;2023-04-03T17:05:01;3.80;;;1.20;;
68247;SDS011;55064;49.636;12.164;2023-04-03T17:10:48;5.65;;;1.35;;
68247;SDS011;55064;49.636;12.164;2023-04-03T17:13:15;6.63;;;1.53;;
68247;SDS011;55064;49.636;12.164;2023-04-03T17:15:41;4.10;;;1.10;;
68247;SDS011;55064;49.636;12.164;2023-04-03T17:18:06;3.83;;;1.10;;
68247;SDS011;55064;49.636;12.164;2023-04-03T17:20:32;3.80;;;1.10;;
68247;SDS011;55064;49.636;12.164;2023-04-03T17:23:00;4.27;;;1.20;;
68247;SDS011;55064;49.636;12.164;2023-04-03T17:25:26;4.55;;;1.17;;
68247;SDS011;55064;49.636;12.164;2023-04-03T17:27:52;3.87;;;1.30;;
68247;SDS011;55064;49.636;12.164;2023-04-03T17:30:17;5.15;;;1.60;;
68247;SDS011;55064;49.636;12.164;2023-04-03T17:32:43;4.50;;;1.47;;
68247;SDS011;55064;49.636;12.164;2023-04-03T17:35:16;7.30;;;1.80;;
68247;SDS011;55064;49.636;12.164;2023-04-03T17:37:42;5.85;;;1.88;;
68247;SDS011;55064;49.636;12.164;2023-04-03T17:40:07;7.07;;;2.00;;
68247;SDS011;55064;49.636;12.164;2023-04-03T17:42:33;8.65;;;2.45;;
68247;SDS011;55064;49.636;12.164;2023-04-03T17:45:03;5.63;;;1.60;;
68247;SDS011;55064;49.636;12.164;2023-04-03T17:47:29;6.90;;;2.78;;
68247;SDS011;55064;49.636;12.164;2023-04-03T17:49:54;5.47;;;2.00;;
68247;SDS011;55064;49.636;12.164;2023-04-03T17:52:19;9.87;;;3.37;;
68247;SDS011;55064;49.636;12.164;2023-04-03T17:54:49;7.57;;;2.70;;
68247;SDS011;55064;49.636;12.164;2023-04-03T17:57:14;5.33;;;1.67;;
68247;SDS011;55064;49.636;12.164;2023-04-03T17:59:40;4.93;;;1.33;;
68247;SDS011;55064;49.636;12.164;2023-04-03T18:02:06;7.47;;;1.70;;
68247;SDS011;55064;49.636;12.164;2023-04-03T18:04:31;5.00;;;1.40;;
68247;SDS011;55064;49.636;12.164;2023-04-03T18:06:56;5.50;;;1.95;;
68247;SDS011;55064;49.636;12.164;2023-04-03T18:09:28;6.73;;;1.27;;
68247;SDS011;55064;49.636;12.164;2023-04-03T18:11:57;5.53;;;1.50;;
68247;SDS011;55064;49.636;12.164;2023-04-03T18:14:28;6.05;;;1.90;;
68247;SDS011;55064;49.636;12.164;2023-04-03T18:16:55;5.40;;;1.50;;
68247;SDS011;55064;49.636;12.164;2023-04-03T18:19:21;5.63;;;1.77;;
68247;SDS011;55064;49.636;12.164;2023-04-03T18:21:48;5.85;;;1.63;;
68247;SDS011;55064;49.636;12.164;2023-04-03T18:24:14;4.57;;;1.50;;
68247;SDS011;55064;49.636;12.164;2023-04-03T18:26:42;4.78;;;1.40;;
68247;SDS011;55064;49.636;12.164;2023-04-03T18:29:13;7.03;;;1.60;;
68247;SDS011;55064;49.636;12.164;2023-04-03T18:31:42;5.20;;;1.40;;
68247;SDS011;55064;49.636;12.164;2023-04-03T18:34:12;4.57;;;1.40;;
68247;SDS011;55064;49.636;12.164;2023-04-03T18:36:39;6.22;;;1.60;;
68247;SDS011;55064;49.636;12.164;2023-04-03T18:39:04;5.10;;;1.88;;
68247;SDS011;55064;49.636;12.164;2023-04-03T18:41:33;6.40;;;1.70;;
68247;SDS011;55064;49.636;12.164;2023-04-03T18:44:07;5.53;;;1.40;;
68247;SDS011;55064;49.636;12.164;2023-04-03T18:46:35;5.72;;;1.48;;
68247;SDS011;55064;49.636;12.164;2023-04-03T18:49:01;4.67;;;1.13;;
68247;SDS011;55064;49.636;12.164;2023-04-03T18:51:29;4.32;;;1.15;;
68247;SDS011;55064;49.636;12.164;2023-04-03T18:53:55;5.50;;;1.67;;
68247;SDS011;55064;49.636;12.164;2023-04-03T18:56:21;4.60;;;1.50;;
68247;SDS011;55064;49.636;12.164;2023-04-03T18:58:50;4.70;;;1.50;;
68247;SDS011;55064;49.636;12.164;2023-04-03T19:01:15;6.43;;;1.50;;
68247;SDS011;55064;49.636;12.164;2023-04-03T19:03:41;5.20;;;1.30;;
68247;SDS011;55064;49.636;12.164;2023-04-03T19:06:06;4.77;;;1.60;;
68247;SDS011;55064;49.636;12.164;2023-04-03T19:08:36;5.03;;;1.70;;
68247;SDS011;55064;49.636;12.164;2023-04-03T19:11:01;5.40;;;1.27;;
68247;SDS011;55064;49.636;12.164;2023-04-03T19:13:29;4.47;;;1.30;;
68247;SDS011;55064;49.636;12.164;2023-04-03T19:15:56;5.93;;;1.20;;
68247;SDS011;55064;49.636;12.164;2023-04-03T19:18:23;4.77;;;1.47;;
68247;SDS011;55064;49.636;12.164;2023-04-03T19:20:54;4.25;;;1.10;;
68247;SDS011;55064;49.636;12.164;2023-04-03T19:23:26;4.13;;;1.23;;
68247;SDS011;55064;49.636;12.164;2023-04-03T19:26:01;5.93;;;1.40;;
68247;SDS011;55064;49.636;12.164;2023-04-03T19:28:28;4.57;;;1.65;;
68247;SDS011;55064;49.636;12.164;2023-04-03T19:30:54;4.40;;;1.30;;
68247;SDS011;55064;49.636;12.164;2023-04-03T19:33:21;5.68;;;1.50;;
68247;SDS011;55064;49.636;12.164;2023-04-03T19:35:50;3.80;;;1.03;;
68247;SDS011;55064;49.636;12.164;2023-04-03T19:38:16;3.67;;;1.15;;
68247;SDS011;55064;49.636;12.164;2023-04-03T19:40:42;4.13;;;1.20;;
68247;SDS011;55064;49.636;12.164;2023-04-03T19:43:14;4.03;;;1.08;;
68247;SDS011;55064;49.636;12.164;2023-04-03T19:45:40;4.47;;;1.27;;
68247;SDS011;55064;49.636;12.164;2023-04-03T19:48:08;6.00;;;1.33;;
68247;SDS011;55064;49.636;12.164;2023-04-03T19:50:34;5.93;;;1.20;;
68247;SDS011;55064;49.636;12.164;2023-04-03T19:53:02;3.37;;;1.00;;
68247;SDS011;55064;49.636;12.164;2023-04-03T19:55:28;5.93;;;1.80;;
68247;SDS011;55064;49.636;12.164;2023-04-03T19:57:57;4.82;;;1.13;;
68247;SDS011;55064;49.636;12.164;2023-04-03T20:00:23;5.60;;;1.20;;
68247;SDS011;55064;49.636;12.164;2023-04-03T20:02:50;4.82;;;1.33;;
68247;SDS011;55064;49.636;12.164;2023-04-03T20:05:19;4.90;;;1.30;;
68247;SDS011;55064;49.636;12.164;2023-04-03T20:07:45;7.75;;;1.55;;
68247;SDS011;55064;49.636;12.164;2023-04-03T20:10:11;5.38;;;1.20;;
68247;SDS011;55064;49.636;12.164;2023-04-03T20:12:37;5.63;;;1.30;;
68247;SDS011;55064;49.636;12.164;2023-04-03T20:15:03;4.03;;;1.00;;
68247;SDS011;55064;49.636;12.164;2023-04-03T20:17:34;5.60;;;1.33;;
68247;SDS011;55064;49.636;12.164;2023-04-03T20:20:01;4.73;;;1.37;;
68247;SDS011;55064;49.636;12.164;2023-04-03T20:22:27;6.75;;;1.58;;
68247;SDS011;55064;49.636;12.164;2023-04-03T20:28:15;5.45;;;1.50;;
68247;SDS011;55064;49.636;12.164;2023-04-03T20:30:46;3.85;;;1.40;;
68247;SDS011;55064;49.636;12.164;2023-04-03T20:33:18;5.43;;;1.70;;
68247;SDS011;55064;49.636;12.164;2023-04-03T20:35:45;7.03;;;1.38;;
68247;SDS011;55064;49.636;12.164;2023-04-03T20:38:11;5.55;;;1.40;;
68247;SDS011;55064;49.636;12.164;2023-04-03T20:40:44;7.50;;;1.80;;
68247;SDS011;55064;49.636;12.164;2023-04-03T20:43:10;5.40;;;1.70;;
68247;SDS011;55064;49.636;12.164;2023-04-03T20:52:27;3.90;;;1.05;;
68247;SDS011;55064;49.636;12.164;2023-04-03T20:58:03;6.97;;;1.90;;
68247;SDS011;55064;49.636;12.164;2023-04-03T21:03:50;5.40;;;1.48;;
68247;SDS011;55064;49.636;12.164;2023-04-03T21:22:01;5.32;;;1.52;;
68247;SDS011;55064;49.636;12.164;2023-04-03T21:24:27;6.05;;;1.65;;
68247;SDS011;55064;49.636;12.164;2023-04-03T21:27:10;5.43;;;1.70;;
68247;SDS011;55064;49.636;12.164;2023-04-03T21:35:56;4.57;;;1.38;;
68247;SDS011;55064;49.636;12.164;2023-04-03T21:41:44;5.47;;;1.75;;
68247;SDS011;55064;49.636;12.164;2023-04-03T21:44:16;6.93;;;2.03;;
68247;SDS011;55064;49.636;12.164;2023-04-03T21:52:23;6.72;;;1.55;;
68247;SDS011;55064;49.636;12.164;2023-04-03T21:58:11;6.07;;;1.95;;
68247;SDS011;55064;49.636;12.164;2023-04-03T22:00:36;7.43;;;2.30;;